createdAt,value
2023-04-20T00:01:10.946Z,0.50
2023-04-20T00:03:38.343Z,0.60
2023-04-20T00:06:05.897Z,0.80
2023-04-20T00:08:33.193Z,0.60
2023-04-20T00:11:00.389Z,0.60
2023-04-20T00:13:27.683Z,0.60
2023-04-20T00:15:54.875Z,1.03
2023-04-20T00:18:22.180Z,0.70
2023-04-20T00:20:49.374Z,1.00
2023-04-20T00:23:16.599Z,0.73
2023-04-20T00:25:43.775Z,0.80
2023-04-20T00:28:11.016Z,1.20
2023-04-20T00:30:38.316Z,2.30
2023-04-20T00:33:05.666Z,0.60
2023-04-20T00:35:33.007Z,0.70
2023-04-20T00:38:00.461Z,0.67
2023-04-20T00:40:27.704Z,0.80
2023-04-20T00:42:54.996Z,0.80
2023-04-20T00:45:22.341Z,0.83
2023-04-20T00:47:49.598Z,0.63
2023-04-20T00:50:17.469Z,0.60
2023-04-20T00:52:45.596Z,0.60
2023-04-20T00:55:13.461Z,0.67
2023-04-20T00:57:41.673Z,0.60
2023-04-20T01:00:10.694Z,0.63
2023-04-20T01:02:38.094Z,0.60
2023-04-20T01:05:05.663Z,0.60
2023-04-20T01:07:32.972Z,0.70
2023-04-20T01:10:00.483Z,0.60
2023-04-20T01:12:27.772Z,0.60
2023-04-20T01:14:54.962Z,1.63
2023-04-20T01:17:22.411Z,0.70
2023-04-20T01:19:50.070Z,0.60
2023-04-20T01:22:21.387Z,0.57
2023-04-20T01:24:48.965Z,0.60
2023-04-20T01:27:17.184Z,2.97
2023-04-20T01:29:45.515Z,1.07
2023-04-20T01:32:13.099Z,0.90
2023-04-20T01:34:40.618Z,0.80
2023-04-20T01:37:08.177Z,1.00
2023-04-20T01:39:40.160Z,0.70
2023-04-20T01:42:07.744Z,0.80
2023-04-20T01:44:35.014Z,0.60
2023-04-20T01:47:02.379Z,2.60
2023-04-20T01:49:29.689Z,0.60
2023-04-20T01:51:57.200Z,1.10
2023-04-20T01:54:24.402Z,0.60
2023-04-20T01:56:51.897Z,0.70
2023-04-20T01:59:19.408Z,0.63
2023-04-20T02:01:47.096Z,0.60
2023-04-20T02:04:14.528Z,1.90
2023-04-20T02:06:41.768Z,1.10
2023-04-20T02:09:09.454Z,1.40
2023-04-20T02:11:36.697Z,1.20
2023-04-20T02:14:03.954Z,1.23
2023-04-20T02:16:31.618Z,1.37
2023-04-20T02:18:58.867Z,0.80
2023-04-20T02:21:26.110Z,1.27
2023-04-20T02:23:53.357Z,1.10
2023-04-20T02:26:20.640Z,1.57
2023-04-20T02:28:47.856Z,0.77
2023-04-20T02:31:15.067Z,1.13
2023-04-20T02:33:42.391Z,0.83
2023-04-20T02:36:09.981Z,0.90
2023-04-20T02:38:38.175Z,1.00
2023-04-20T02:41:05.703Z,1.20
2023-04-20T02:43:34.233Z,1.20
2023-04-20T02:46:01.701Z,0.80
2023-04-20T02:48:28.920Z,1.03
2023-04-20T02:50:57.302Z,1.20
2023-04-20T02:53:24.521Z,0.93
2023-04-20T02:55:51.760Z,1.33
2023-04-20T02:58:19.176Z,0.80
2023-04-20T03:00:46.356Z,1.80
2023-04-20T03:03:13.723Z,1.00
2023-04-20T03:05:41.494Z,1.10
2023-04-20T03:08:08.696Z,1.00
2023-04-20T03:10:36.110Z,0.90
2023-04-20T03:13:03.328Z,1.00
2023-04-20T03:15:30.513Z,1.00
2023-04-20T03:17:57.776Z,1.43
2023-04-20T03:20:25.067Z,1.00
2023-04-20T03:22:52.351Z,1.10
2023-04-20T03:25:19.707Z,1.20
2023-04-20T03:27:47.551Z,1.50
2023-04-20T03:30:15.724Z,1.70
2023-04-20T03:32:42.996Z,1.63
2023-04-20T03:35:10.376Z,1.40
2023-04-20T03:37:38.130Z,1.50
2023-04-20T03:40:07.304Z,1.70
2023-04-20T03:42:34.482Z,1.40
2023-04-20T03:45:01.858Z,1.10
2023-04-20T03:47:29.148Z,2.90
2023-04-20T03:49:56.476Z,1.33
2023-04-20T03:52:23.724Z,1.03
2023-04-20T03:54:51.533Z,1.20
2023-04-20T03:57:18.799Z,1.00
2023-04-20T03:59:46.074Z,1.50
2023-04-20T04:02:13.594Z,1.20
2023-04-20T04:04:41.611Z,1.03
2023-04-20T04:07:08.935Z,1.23
2023-04-20T04:09:36.153Z,1.00
2023-04-20T04:12:04.949Z,1.30
2023-04-20T04:14:32.660Z,1.60
2023-04-20T04:17:00.340Z,2.37
2023-04-20T04:19:27.568Z,1.40
2023-04-20T04:21:54.811Z,2.33
2023-04-20T04:24:22.727Z,2.00
2023-04-20T04:26:49.914Z,2.40
2023-04-20T04:29:17.488Z,1.60
2023-04-20T04:31:44.920Z,2.10
2023-04-20T04:34:12.354Z,1.60
2023-04-20T04:36:39.713Z,1.80
2023-04-20T04:39:06.929Z,1.87
2023-04-20T04:41:34.182Z,1.83
2023-04-20T04:44:01.380Z,1.73
2023-04-20T04:46:28.817Z,2.00
2023-04-20T04:48:56.602Z,1.97
2023-04-20T04:51:23.817Z,1.50
2023-04-20T04:53:51.131Z,2.20
2023-04-20T04:56:18.640Z,1.50
2023-04-20T04:58:45.842Z,4.60
2023-04-20T05:01:13.947Z,1.93
2023-04-20T05:03:41.392Z,1.60
2023-04-20T05:06:08.762Z,1.63
2023-04-20T05:08:35.946Z,1.40
2023-04-20T05:11:03.347Z,1.67
2023-04-20T05:13:30.579Z,1.40
2023-04-20T05:15:58.177Z,1.33
2023-04-20T05:18:25.427Z,1.47
2023-04-20T05:20:52.839Z,2.67
2023-04-20T05:23:20.145Z,2.10
2023-04-20T05:25:47.538Z,1.97
2023-04-20T05:28:14.791Z,2.10
2023-04-20T05:30:42.039Z,2.20
2023-04-20T05:33:09.356Z,2.10
2023-04-20T05:35:36.659Z,2.00
2023-04-20T05:38:06.391Z,2.60
2023-04-20T05:40:35.487Z,2.90
2023-04-20T05:43:02.851Z,2.70
2023-04-20T05:45:30.159Z,2.50
2023-04-20T05:47:57.819Z,2.70
2023-04-20T05:50:26.655Z,3.40
2023-04-20T05:52:54.226Z,2.37
2023-04-20T05:55:22.826Z,3.30
2023-04-20T05:57:52.393Z,3.10
2023-04-20T06:00:21.785Z,3.10
2023-04-20T06:02:51.243Z,2.40
2023-04-20T06:05:18.678Z,2.17
2023-04-20T06:07:46.094Z,2.60
2023-04-20T06:10:13.523Z,3.53
2023-04-20T06:12:41.019Z,2.73
2023-04-20T06:15:10.819Z,2.80
2023-04-20T06:17:40.896Z,2.20
2023-04-20T06:20:11.993Z,2.67
2023-04-20T06:22:44.590Z,2.53
2023-04-20T06:25:12.186Z,2.10
2023-04-20T06:27:39.827Z,2.13
2023-04-20T06:30:07.831Z,1.60
2023-04-20T06:32:35.169Z,2.13
2023-04-20T06:35:03.205Z,1.20
2023-04-20T06:37:30.869Z,1.57
2023-04-20T06:39:58.165Z,1.70
2023-04-20T06:42:25.572Z,1.60
2023-04-20T06:44:52.906Z,2.77
2023-04-20T06:47:20.861Z,1.20
2023-04-20T06:49:48.214Z,2.03
2023-04-20T06:52:15.514Z,2.73
2023-04-20T06:54:42.708Z,1.50
2023-04-20T06:57:09.946Z,1.80
2023-04-20T06:59:37.132Z,1.53
2023-04-20T07:02:04.459Z,1.83
2023-04-20T07:04:31.853Z,1.83
2023-04-20T07:06:59.154Z,1.80
2023-04-20T07:09:27.083Z,1.90
2023-04-20T07:11:56.301Z,2.20
2023-04-20T07:14:23.691Z,2.40
2023-04-20T07:16:54.530Z,2.10
2023-04-20T07:19:22.022Z,2.27
2023-04-20T07:21:49.343Z,2.73
2023-04-20T07:24:16.554Z,2.43
2023-04-20T07:26:43.759Z,3.13
2023-04-20T07:29:11.677Z,2.70
2023-04-20T07:31:38.915Z,3.27
2023-04-20T07:34:06.361Z,2.90
2023-04-20T07:36:34.268Z,2.97
2023-04-20T07:39:01.549Z,3.00
2023-04-20T07:41:28.766Z,5.23
2023-04-20T07:43:55.988Z,2.70
2023-04-20T07:46:23.687Z,3.63
2023-04-20T07:48:51.022Z,2.47
2023-04-20T07:51:18.255Z,3.27
2023-04-20T07:53:45.454Z,4.80
2023-04-20T07:56:12.637Z,3.00
2023-04-20T07:58:40.876Z,2.60
2023-04-20T08:01:08.215Z,3.63
2023-04-20T08:03:36.407Z,5.00
2023-04-20T08:06:04.013Z,4.50
2023-04-20T08:08:31.474Z,6.00
2023-04-20T08:10:59.262Z,5.03
2023-04-20T08:13:27.647Z,3.00
2023-04-20T08:15:54.954Z,4.37
2023-04-20T08:18:22.572Z,7.83
2023-04-20T08:20:51.228Z,6.20
2023-04-20T08:23:18.501Z,3.83
2023-04-20T08:25:45.718Z,6.20
2023-04-20T08:28:24.350Z,3.07
2023-04-20T08:31:00.194Z,2.03
2023-04-20T08:33:27.617Z,2.63
2023-04-20T08:35:55.101Z,2.97
2023-04-20T08:38:32.920Z,2.03
2023-04-20T08:41:01.506Z,4.07
2023-04-20T08:43:28.843Z,3.60
2023-04-20T08:46:02.819Z,2.90
2023-04-20T08:48:38.974Z,4.10
2023-04-20T08:51:06.508Z,3.00
2023-04-20T08:53:34.219Z,2.83
2023-04-20T08:56:01.672Z,1.93
2023-04-20T08:58:34.528Z,2.30
2023-04-20T09:01:01.815Z,1.97
2023-04-20T09:03:40.033Z,2.10
2023-04-20T09:06:17.834Z,2.73
2023-04-20T09:08:46.432Z,2.57
2023-04-20T09:11:26.174Z,2.57
2023-04-20T09:14:16.482Z,2.37
2023-04-20T09:16:52.361Z,2.30
2023-04-20T09:19:26.398Z,2.90
2023-04-20T09:21:56.986Z,2.60
2023-04-20T09:24:34.032Z,2.30
2023-04-20T09:27:02.826Z,2.07
2023-04-20T09:29:30.425Z,5.70
2023-04-20T09:31:57.774Z,2.70
2023-04-20T09:34:25.746Z,2.10
2023-04-20T09:36:55.687Z,2.10
2023-04-20T09:39:24.616Z,1.67
2023-04-20T09:41:52.684Z,1.93
2023-04-20T09:44:20.212Z,2.10
2023-04-20T09:46:47.652Z,2.27
2023-04-20T09:49:15.394Z,6.30
2023-04-20T09:51:47.877Z,2.03
2023-04-20T09:54:16.315Z,2.30
2023-04-20T09:56:43.966Z,2.10
2023-04-20T09:59:12.444Z,2.83
2023-04-20T10:01:39.704Z,2.30
2023-04-20T10:04:10.947Z,2.23
2023-04-20T10:06:38.965Z,2.57
2023-04-20T10:09:08.243Z,2.40
2023-04-20T10:11:52.441Z,2.30
2023-04-20T10:14:26.075Z,2.67
2023-04-20T10:17:08.635Z,2.20
2023-04-20T10:19:41.041Z,2.37
2023-04-20T10:22:13.566Z,2.07
2023-04-20T10:24:40.993Z,2.40
2023-04-20T10:27:22.201Z,3.30
2023-04-20T10:29:49.986Z,2.80
2023-04-20T10:32:29.514Z,1.97
2023-04-20T10:35:11.715Z,2.00
2023-04-20T10:37:52.105Z,2.30
2023-04-20T10:40:28.451Z,2.30
2023-04-20T10:42:55.877Z,2.63
2023-04-20T10:45:35.268Z,3.33
2023-04-20T10:48:11.753Z,3.90
2023-04-20T10:50:39.080Z,3.63
2023-04-20T10:53:07.292Z,2.97
2023-04-20T10:55:34.916Z,3.20
2023-04-20T10:58:02.239Z,2.90
2023-04-20T11:00:31.191Z,2.60
2023-04-20T11:02:58.643Z,3.00
2023-04-20T11:05:27.808Z,2.77
2023-04-20T11:07:56.815Z,2.37
2023-04-20T11:10:26.036Z,2.30
2023-04-20T11:12:53.390Z,3.17
2023-04-20T11:15:39.895Z,4.13
2023-04-20T11:18:12.292Z,2.57
2023-04-20T11:20:51.470Z,2.50
2023-04-20T11:23:22.951Z,2.20
2023-04-20T11:25:56.815Z,2.60
2023-04-20T11:28:25.962Z,3.13
2023-04-20T11:30:54.222Z,2.60
2023-04-20T11:33:29.030Z,2.73
2023-04-20T11:36:00.455Z,2.60
2023-04-20T11:38:35.149Z,2.60
2023-04-20T11:41:05.489Z,2.77
2023-04-20T11:43:32.799Z,2.70
2023-04-20T11:46:02.910Z,4.73
2023-04-20T11:48:31.604Z,2.30
2023-04-20T11:50:59.489Z,2.53
2023-04-20T11:53:26.845Z,3.33
2023-04-20T11:55:54.149Z,2.53
2023-04-20T11:58:21.376Z,2.60
2023-04-20T12:00:49.164Z,2.03
2023-04-20T12:03:16.691Z,2.03
2023-04-20T12:05:44.326Z,4.13
2023-04-20T12:08:11.699Z,2.53
2023-04-20T12:10:40.245Z,2.60
2023-04-20T12:13:07.453Z,2.50
2023-04-20T12:15:34.711Z,1.70
2023-04-20T12:18:03.355Z,2.50
2023-04-20T12:20:30.680Z,3.13
2023-04-20T12:22:59.121Z,2.23
2023-04-20T12:25:26.550Z,1.90
2023-04-20T12:27:53.796Z,3.10
2023-04-20T12:30:21.387Z,2.47
2023-04-20T12:32:48.616Z,2.50
2023-04-20T12:35:16.048Z,2.43
2023-04-20T12:37:43.268Z,2.87
2023-04-20T12:40:10.939Z,2.57
2023-04-20T12:42:38.248Z,2.90
2023-04-20T12:45:05.873Z,5.70
2023-04-20T12:47:33.121Z,2.40
2023-04-20T12:50:00.590Z,3.17
2023-04-20T12:52:29.122Z,2.33
2023-04-20T12:54:56.378Z,3.00
2023-04-20T12:57:23.626Z,1.90
2023-04-20T12:59:50.914Z,2.50
2023-04-20T13:02:18.632Z,1.70
2023-04-20T13:04:47.045Z,6.03
2023-04-20T13:07:14.304Z,2.53
2023-04-20T13:09:41.508Z,2.03
2023-04-20T13:12:08.808Z,2.40
2023-04-20T13:14:36.049Z,3.13
2023-04-20T13:17:03.443Z,2.63
2023-04-20T13:19:31.465Z,2.50
2023-04-20T13:21:59.048Z,3.50
2023-04-20T13:24:26.338Z,3.57
2023-04-20T13:26:57.952Z,2.20
2023-04-20T13:29:26.277Z,9.70
2023-04-20T13:31:53.579Z,2.40
2023-04-20T13:34:21.123Z,2.40
2023-04-20T13:36:49.290Z,2.27
2023-04-20T13:39:18.040Z,2.07
2023-04-20T13:41:45.901Z,2.47
2023-04-20T13:44:16.252Z,4.47
2023-04-20T13:46:44.728Z,6.40
2023-04-20T13:49:13.507Z,3.50
2023-04-20T13:51:40.902Z,2.27
2023-04-20T13:54:08.379Z,3.20
2023-04-20T13:56:35.827Z,4.50
2023-04-20T13:59:04.255Z,2.00
2023-04-20T14:01:31.688Z,2.10
2023-04-20T14:03:59.363Z,3.07
2023-04-20T14:06:28.922Z,2.60
2023-04-20T14:08:56.233Z,2.40
2023-04-20T14:11:23.514Z,2.57
2023-04-20T14:13:51.945Z,3.47
2023-04-20T14:16:19.301Z,3.60
2023-04-20T14:18:46.571Z,2.97
2023-04-20T14:21:13.890Z,3.53
2023-04-20T14:23:41.170Z,2.67
2023-04-20T14:26:08.443Z,2.50
2023-04-20T14:28:35.951Z,2.50
2023-04-20T14:31:03.453Z,2.30
2023-04-20T14:33:30.846Z,2.10
2023-04-20T14:35:58.188Z,3.47
2023-04-20T14:38:25.406Z,2.10
2023-04-20T14:40:52.720Z,2.63
2023-04-20T14:43:20.004Z,2.20
2023-04-20T14:45:47.757Z,2.40
2023-04-20T14:48:14.982Z,2.40
2023-04-20T14:50:42.171Z,1.77
2023-04-20T14:53:10.091Z,3.13
2023-04-20T14:55:37.301Z,2.20
2023-04-20T14:58:04.590Z,1.97
2023-04-20T15:00:31.837Z,2.23
2023-04-20T15:03:00.671Z,1.97
2023-04-20T15:05:28.576Z,3.40
2023-04-20T15:07:57.651Z,3.03
2023-04-20T15:10:25.132Z,2.20
2023-04-20T15:12:52.689Z,3.37
2023-04-20T15:15:20.038Z,2.97
2023-04-20T15:17:47.387Z,5.97
2023-04-20T15:20:18.230Z,2.10
2023-04-20T15:22:45.808Z,2.20
2023-04-20T15:25:13.171Z,1.93
2023-04-20T15:27:40.545Z,2.63
2023-04-20T15:30:08.309Z,3.90
2023-04-20T15:32:35.825Z,2.73
2023-04-20T15:35:03.564Z,2.63
2023-04-20T15:37:30.774Z,3.07
2023-04-20T15:39:59.236Z,2.70
2023-04-20T15:42:27.451Z,2.10
2023-04-20T15:44:54.805Z,3.90
2023-04-20T15:47:22.250Z,2.80
2023-04-20T15:49:49.660Z,2.37
2023-04-20T15:52:16.894Z,2.43
2023-04-20T15:54:47.459Z,2.30
2023-04-20T15:57:14.719Z,6.07
2023-04-20T15:59:41.972Z,2.10
2023-04-20T16:02:09.347Z,3.00
2023-04-20T16:04:36.781Z,2.40
2023-04-20T16:07:04.267Z,2.17
2023-04-20T16:09:31.843Z,1.93
2023-04-20T16:11:59.169Z,2.50
2023-04-20T16:14:26.476Z,6.13
2023-04-20T16:16:53.676Z,3.87
2023-04-20T16:19:20.991Z,2.03
2023-04-20T16:21:48.276Z,2.40
2023-04-20T16:24:15.799Z,2.90
2023-04-20T16:26:43.218Z,2.77
2023-04-20T16:29:10.443Z,2.53
2023-04-20T16:31:38.041Z,6.80
2023-04-20T16:34:05.435Z,2.70
2023-04-20T16:36:33.101Z,2.40
2023-04-20T16:39:04.902Z,2.50
2023-04-20T16:41:32.238Z,3.70
2023-04-20T16:43:59.483Z,2.60
2023-04-20T16:46:26.764Z,2.37
2023-04-20T16:48:54.696Z,3.03
2023-04-20T16:51:22.262Z,2.50
2023-04-20T16:53:49.650Z,2.83
2023-04-20T16:56:16.946Z,3.13
2023-04-20T16:58:44.177Z,2.83
2023-04-20T17:01:13.910Z,2.67
2023-04-20T17:03:41.630Z,4.53
2023-04-20T17:06:09.873Z,2.80
2023-04-20T17:08:37.775Z,6.67
2023-04-20T17:11:06.123Z,2.93
2023-04-20T17:13:34.296Z,4.73
2023-04-20T17:16:01.698Z,3.67
2023-04-20T17:18:28.930Z,4.70
2023-04-20T17:20:58.378Z,5.20
2023-04-20T17:23:26.446Z,4.80
2023-04-20T17:25:54.795Z,9.33
2023-04-20T17:28:22.104Z,10.23
2023-04-20T17:30:49.305Z,12.10
2023-04-20T17:33:16.594Z,5.40
2023-04-20T17:35:45.762Z,5.40
2023-04-20T17:38:13.045Z,4.47
2023-04-20T17:40:40.598Z,3.70
2023-04-20T17:43:08.467Z,5.53
2023-04-20T17:45:36.890Z,3.50
2023-04-20T17:48:04.449Z,4.97
2023-04-20T17:50:31.832Z,3.13
2023-04-20T17:52:59.101Z,3.23
2023-04-20T17:55:26.394Z,3.30
2023-04-20T17:57:53.677Z,2.63
2023-04-20T18:00:21.089Z,2.67
2023-04-20T18:02:48.423Z,5.33
2023-04-20T18:05:15.798Z,3.50
2023-04-20T18:07:43.249Z,3.30
2023-04-20T18:10:13.581Z,3.33
2023-04-20T18:12:40.966Z,3.90
2023-04-20T18:15:09.130Z,6.20
2023-04-20T18:17:36.397Z,4.00
2023-04-20T18:20:05.892Z,4.93
2023-04-20T18:22:33.310Z,4.73
2023-04-20T18:25:00.582Z,4.27
2023-04-20T18:27:27.769Z,4.27
2023-04-20T18:29:56.240Z,3.70
2023-04-20T18:32:23.507Z,3.33
2023-04-20T18:34:51.699Z,5.20
2023-04-20T18:37:18.927Z,3.63
2023-04-20T18:39:46.224Z,4.37
2023-04-20T18:42:13.378Z,3.90
2023-04-20T18:44:40.998Z,3.30
2023-04-20T18:47:08.435Z,3.53
2023-04-20T18:49:35.719Z,2.90
2023-04-20T18:52:03.140Z,5.23
2023-04-20T18:54:30.392Z,3.47
2023-04-20T18:56:58.381Z,5.20
2023-04-20T18:59:25.567Z,4.70
2023-04-20T19:01:52.958Z,4.80
2023-04-20T19:04:21.782Z,3.70
2023-04-20T19:06:49.227Z,3.27
2023-04-20T19:09:16.462Z,3.50
2023-04-20T19:11:43.718Z,3.70
2023-04-20T19:14:11.606Z,3.27
2023-04-20T19:16:38.838Z,3.77
2023-04-20T19:19:06.152Z,3.07
2023-04-20T19:21:33.991Z,3.37
2023-04-20T19:24:01.323Z,3.70
2023-04-20T19:26:28.576Z,5.00
2023-04-20T19:28:57.770Z,3.90
2023-04-20T19:31:26.426Z,3.20
2023-04-20T19:33:55.282Z,3.70
2023-04-20T19:36:24.115Z,3.03
2023-04-20T19:38:51.486Z,4.83
2023-04-20T19:41:18.679Z,3.03
2023-04-20T19:43:45.953Z,2.93
2023-04-20T19:46:16.985Z,3.03
2023-04-20T19:48:45.524Z,3.90
2023-04-20T19:51:12.758Z,3.70
2023-04-20T19:53:39.991Z,4.60
2023-04-20T19:56:07.487Z,5.17
2023-04-20T19:58:34.810Z,6.40
2023-04-20T20:01:02.194Z,6.33
2023-04-20T20:03:29.783Z,4.97
2023-04-20T20:05:57.187Z,5.50
2023-04-20T20:08:24.421Z,4.40
2023-04-20T20:10:51.676Z,6.83
2023-04-20T20:13:18.891Z,6.13
2023-04-20T20:15:46.265Z,9.90
2023-04-20T20:18:14.184Z,5.50
2023-04-20T20:20:41.563Z,6.00
2023-04-20T20:23:08.878Z,5.03
2023-04-20T20:25:36.290Z,5.57
2023-04-20T20:28:03.505Z,6.40
2023-04-20T20:30:31.180Z,4.80
2023-04-20T20:33:01.400Z,4.07
2023-04-20T20:35:33.257Z,3.63
2023-04-20T20:38:00.900Z,4.30
2023-04-20T20:40:28.179Z,3.37
2023-04-20T20:42:55.540Z,2.90
2023-04-20T20:45:23.451Z,5.33
2023-04-20T20:47:50.993Z,5.30
2023-04-20T20:50:19.159Z,4.20
2023-04-20T20:52:46.576Z,5.40
2023-04-20T20:55:13.895Z,3.87
2023-04-20T20:57:41.095Z,5.80
2023-04-20T21:00:10.515Z,4.80
2023-04-20T21:02:38.412Z,7.00
2023-04-20T21:05:07.490Z,6.73
2023-04-20T21:07:34.910Z,9.63
2023-04-20T21:10:02.344Z,7.53
2023-04-20T21:12:29.594Z,8.47
2023-04-20T21:14:56.961Z,11.33
2023-04-20T21:17:24.282Z,6.10
2023-04-20T21:19:51.641Z,6.33
2023-04-20T21:22:20.175Z,5.17
2023-04-20T21:24:47.427Z,6.17
2023-04-20T21:27:14.631Z,5.87
2023-04-20T21:29:41.882Z,7.30
2023-04-20T21:32:09.975Z,7.00
2023-04-20T21:34:37.259Z,6.20
2023-04-20T21:37:05.749Z,5.60
2023-04-20T21:39:33.447Z,3.73
2023-04-20T21:42:01.614Z,5.53
2023-04-20T21:44:29.098Z,2.93
2023-04-20T21:46:56.399Z,2.80
2023-04-20T21:49:23.691Z,3.07
2023-04-20T21:51:50.890Z,3.40
2023-04-20T21:54:18.061Z,3.10
2023-04-20T21:56:46.609Z,4.00
2023-04-20T21:59:14.497Z,3.40
2023-04-20T22:01:41.966Z,2.77
2023-04-20T22:04:09.655Z,3.90
2023-04-20T22:06:37.017Z,4.67
2023-04-20T22:09:04.793Z,4.83
2023-04-20T22:11:36.466Z,3.97
2023-04-20T22:14:04.450Z,5.30
2023-04-20T22:16:33.977Z,4.10
2023-04-20T22:19:01.488Z,7.60
2023-04-20T22:21:28.791Z,4.77
2023-04-20T22:23:56.113Z,3.80
2023-04-20T22:26:23.796Z,4.53
2023-04-20T22:28:51.035Z,4.60
2023-04-20T22:31:18.377Z,5.80
2023-04-20T22:33:45.738Z,3.20
2023-04-20T22:36:13.243Z,4.10
2023-04-20T22:38:40.649Z,3.93
2023-04-20T22:41:07.946Z,4.07
2023-04-20T22:43:35.352Z,3.33
2023-04-20T22:46:02.602Z,3.57
2023-04-20T22:48:29.898Z,3.60
2023-04-20T22:51:00.781Z,3.97
2023-04-20T22:53:30.195Z,3.70
2023-04-20T22:56:07.714Z,3.73
2023-04-20T22:58:35.293Z,4.27
2023-04-20T23:01:03.005Z,4.77
2023-04-20T23:03:31.284Z,4.57
2023-04-20T23:05:59.249Z,4.53
2023-04-20T23:08:28.103Z,4.40
2023-04-20T23:10:55.455Z,9.57
2023-04-20T23:13:24.750Z,6.47
2023-04-20T23:15:52.490Z,16.37
2023-04-20T23:18:19.820Z,11.80
2023-04-20T23:20:47.054Z,8.60
2023-04-20T23:23:14.315Z,6.80
2023-04-20T23:25:41.734Z,5.90
2023-04-20T23:28:09.021Z,4.50
2023-04-20T23:30:36.518Z,3.10
2023-04-20T23:33:03.874Z,5.93
2023-04-20T23:35:31.178Z,4.53
2023-04-20T23:37:58.480Z,4.00
2023-04-20T23:40:25.855Z,3.67
2023-04-20T23:42:55.107Z,4.10
2023-04-20T23:45:22.931Z,3.63
2023-04-20T23:47:50.254Z,4.30
2023-04-20T23:50:17.512Z,5.27
2023-04-20T23:52:44.740Z,4.00
2023-04-20T23:55:11.974Z,4.20
2023-04-20T23:57:39.422Z,4.40
